createdAt,value
2023-03-26T00:03:13.140Z,8.8
2023-03-26T00:08:58.973Z,8.5
2023-03-26T00:14:43.660Z,5.4
2023-03-26T00:20:28.252Z,8.4
2023-03-26T00:26:13.226Z,6.3
2023-03-26T00:31:58.749Z,6.1
2023-03-26T00:37:43.319Z,6.7
2023-03-26T00:43:27.987Z,6.4
2023-03-26T00:49:12.456Z,12.3
2023-03-26T00:54:58.490Z,6
2023-03-26T01:00:49.127Z,9.1
2023-03-26T01:06:34.817Z,6.9
2023-03-26T01:12:24.590Z,7.9
2023-03-26T01:18:09.399Z,9.9
2023-03-26T01:23:59.803Z,5.5
2023-03-26T01:29:47.668Z,7.4
2023-03-26T01:35:37.808Z,6.5
2023-03-26T01:41:24.911Z,5.7
2023-03-26T01:47:14.397Z,6.2
2023-03-26T01:52:58.892Z,5.5
2023-03-26T01:58:48.520Z,5.9
2023-03-26T02:04:35.651Z,8.1
2023-03-26T02:10:22.959Z,6.1
2023-03-26T02:16:09.360Z,6.3
2023-03-26T02:21:54.135Z,6.9
2023-03-26T02:27:38.796Z,6.9
2023-03-26T02:33:23.228Z,8.4
2023-03-26T02:39:08.274Z,7.1
2023-03-26T02:44:52.857Z,5.1
2023-03-26T02:50:37.402Z,7.1
2023-03-26T02:56:22.087Z,7.2
2023-03-26T03:02:06.969Z,6.7
2023-03-26T03:07:51.486Z,7.1
2023-03-26T03:13:36.009Z,5.6
2023-03-26T03:19:20.507Z,7
2023-03-26T03:25:06.569Z,8.8
2023-03-26T03:30:52.456Z,9.6
2023-03-26T03:36:37.034Z,7.8
2023-03-26T03:42:21.669Z,7.9
2023-03-26T03:48:08.528Z,5.7
2023-03-26T03:53:53.394Z,7.3
2023-03-26T03:59:37.941Z,6.9
2023-03-26T04:05:22.565Z,7.4
2023-03-26T04:11:07.283Z,7.8
2023-03-26T04:16:51.830Z,6.9
2023-03-26T04:22:36.518Z,7.7
2023-03-26T04:28:26.165Z,7.4
2023-03-26T04:34:12.324Z,4.7
2023-03-26T04:39:57.076Z,7.4
2023-03-26T04:45:41.709Z,6.7
2023-03-26T04:51:28.267Z,7
2023-03-26T04:57:17.231Z,7.3
2023-03-26T05:03:01.960Z,7.5
2023-03-26T05:08:46.592Z,7.1
2023-03-26T05:14:31.131Z,4.7
2023-03-26T05:20:19.496Z,6.2
2023-03-26T05:26:04.957Z,5.1
2023-03-26T05:31:50.520Z,4.7
2023-03-26T05:37:36.674Z,5
2023-03-26T05:43:21.074Z,6.9
2023-03-26T05:49:07.192Z,4.6
2023-03-26T05:54:51.651Z,4.8
2023-03-26T06:00:36.399Z,4.7
2023-03-26T06:06:25.763Z,4.3
2023-03-26T06:12:11.326Z,4
2023-03-26T06:17:56.000Z,3.4
2023-03-26T06:23:40.759Z,4.9
2023-03-26T06:29:25.400Z,4.2
2023-03-26T06:35:10.391Z,2.9
2023-03-26T06:40:56.090Z,4.3
2023-03-26T06:46:41.142Z,2.3
2023-03-26T06:52:25.680Z,2.9
2023-03-26T06:58:10.334Z,4.8
2023-03-26T07:03:54.956Z,2.6
2023-03-26T07:09:44.506Z,2.8
2023-03-26T07:15:30.833Z,3.2
2023-03-26T07:21:16.421Z,2.8
2023-03-26T07:27:05.678Z,3
2023-03-26T07:32:56.422Z,2.2
2023-03-26T07:38:48.891Z,2.3
2023-03-26T07:44:40.327Z,2.6
2023-03-26T07:50:26.145Z,2.3
2023-03-26T07:56:16.916Z,3.4
2023-03-26T08:02:12.616Z,3.2
2023-03-26T08:08:04.030Z,2.2
2023-03-26T08:13:55.190Z,1.4
2023-03-26T08:19:51.425Z,2.8
2023-03-26T08:25:40.958Z,1.9
2023-03-26T08:31:32.766Z,4.1
2023-03-26T08:37:17.640Z,1.8
2023-03-26T08:43:13.382Z,2.1
2023-03-26T08:49:16.663Z,1.1
2023-03-26T08:55:09.408Z,2
2023-03-26T09:01:04.369Z,2.5
2023-03-26T09:07:03.346Z,1.9
2023-03-26T09:12:57.146Z,1.4
2023-03-26T09:18:58.780Z,1.6
2023-03-26T09:25:01.712Z,1.2
2023-03-26T09:30:55.987Z,1.7
2023-03-26T09:36:52.012Z,0.9
2023-03-26T09:42:40.898Z,1.5
2023-03-26T09:48:48.875Z,1.4
2023-03-26T09:54:46.800Z,1.6
2023-03-26T10:00:38.036Z,1.5
2023-03-26T10:06:30.674Z,2.2
2023-03-26T10:12:22.188Z,1.6
2023-03-26T10:18:29.645Z,2.1
2023-03-26T10:24:22.728Z,2.1
2023-03-26T10:30:15.346Z,1.8
2023-03-26T10:36:06.122Z,2.4
2023-03-26T10:41:54.809Z,0.7
2023-03-26T10:47:53.470Z,0.7
2023-03-26T10:53:40.728Z,1.8
2023-03-26T10:59:25.362Z,0.9
2023-03-26T11:05:21.239Z,0.6
2023-03-26T11:11:08.358Z,0.7
2023-03-26T11:17:00.994Z,1
2023-03-26T11:22:50.105Z,0.7
2023-03-26T11:29:03.327Z,0.8
2023-03-26T11:34:53.961Z,0.9
2023-03-26T11:40:40.620Z,0.8
2023-03-26T11:46:27.074Z,0.7
2023-03-26T11:52:13.258Z,0.9
2023-03-26T11:58:01.558Z,1
2023-03-26T12:03:46.854Z,0.8
2023-03-26T12:09:31.329Z,1.2
2023-03-26T12:15:20.309Z,0.8
2023-03-26T12:21:12.887Z,1.7
2023-03-26T12:26:59.810Z,1.1
2023-03-26T12:32:55.022Z,1.4
2023-03-26T12:38:39.654Z,1.1
2023-03-26T12:44:58.401Z,1.8
2023-03-26T12:50:39.236Z,1.5
2023-03-26T12:56:30.230Z,2.1
2023-03-26T13:02:26.011Z,1.5
2023-03-26T13:08:18.223Z,1.3
2023-03-26T13:14:09.133Z,1.5
2023-03-26T13:19:55.738Z,2.2
2023-03-26T13:25:46.295Z,1.2
2023-03-26T13:31:36.611Z,1
2023-03-26T13:37:26.017Z,1.3
2023-03-26T13:43:24.837Z,1.5
2023-03-26T13:49:13.859Z,1
2023-03-26T13:55:04.028Z,0.6
2023-03-26T14:00:55.058Z,0.7
2023-03-26T14:06:43.963Z,1.4
2023-03-26T14:12:39.825Z,1.2
2023-03-26T14:18:34.439Z,1.4
2023-03-26T14:24:31.092Z,1
2023-03-26T14:30:29.501Z,1.1
2023-03-26T14:36:19.080Z,1.5
2023-03-26T14:42:05.724Z,1.2
2023-03-26T14:47:54.386Z,1.1
2023-03-26T14:53:41.355Z,1.3
2023-03-26T14:59:45.982Z,0.8
2023-03-26T15:05:51.178Z,1.2
2023-03-26T15:11:42.474Z,1.4
2023-03-26T15:17:44.321Z,1.3
2023-03-26T15:23:48.942Z,0.9
2023-03-26T15:29:45.495Z,1.5
2023-03-26T15:35:41.887Z,1
2023-03-26T15:41:31.952Z,1.4
2023-03-26T15:47:29.599Z,1.5
2023-03-26T15:53:20.952Z,1.1
2023-03-26T15:59:10.360Z,1
2023-03-26T16:04:56.958Z,1.6
2023-03-26T16:10:45.178Z,1.2
2023-03-26T16:16:40.576Z,1.6
2023-03-26T16:22:45.698Z,1.7
2023-03-26T16:28:37.461Z,1.2
2023-03-26T16:34:30.260Z,2.3
2023-03-26T16:40:26.116Z,1.3
2023-03-26T16:46:14.492Z,2.5
2023-03-26T16:52:04.097Z,2.2
2023-03-26T16:57:55.475Z,2.6
2023-03-26T17:03:45.008Z,2
2023-03-26T17:09:36.726Z,3.1
2023-03-26T17:15:27.982Z,3
2023-03-26T17:21:17.262Z,2.9
2023-03-26T17:27:05.250Z,4
2023-03-26T17:33:00.857Z,6.4
2023-03-26T17:39:02.884Z,7.1
2023-03-26T17:44:49.329Z,9.3
2023-03-26T17:50:36.595Z,7.2
2023-03-26T17:56:24.668Z,7.8
2023-03-26T18:02:15.914Z,7.5
2023-03-26T18:08:21.131Z,12.9
2023-03-26T18:14:23.873Z,12.2
2023-03-26T18:20:10.474Z,11.7
2023-03-26T18:25:59.286Z,11.8
2023-03-26T18:31:44.674Z,15.5
2023-03-26T18:37:30.475Z,11.2
2023-03-26T18:43:35.718Z,11
2023-03-26T18:49:26.056Z,9.6
2023-03-26T18:55:14.390Z,8.8
2023-03-26T19:01:00.644Z,12.5
2023-03-26T19:06:46.050Z,8.9
2023-03-26T19:12:31.498Z,9.5
2023-03-26T19:18:19.693Z,9.8
2023-03-26T19:24:05.078Z,8.4
2023-03-26T19:29:50.691Z,8.9
2023-03-26T19:35:39.855Z,6.4
2023-03-26T19:41:27.201Z,5.4
2023-03-26T19:47:19.472Z,5.5
2023-03-26T19:53:20.200Z,8.2
2023-03-26T19:59:04.824Z,7.1
2023-03-26T20:04:49.259Z,4.9
2023-03-26T20:10:33.854Z,9.5
2023-03-26T20:16:22.009Z,5.9
2023-03-26T20:22:08.414Z,6
2023-03-26T20:27:53.080Z,6.4
2023-03-26T20:33:37.929Z,6.5
2023-03-26T20:39:22.713Z,5.6
2023-03-26T20:45:14.550Z,6
2023-03-26T20:50:59.187Z,7.5
2023-03-26T20:56:43.775Z,5.7
2023-03-26T21:02:28.887Z,6.2
2023-03-26T21:08:17.046Z,6.5
2023-03-26T21:14:04.661Z,7.1
2023-03-26T21:19:50.046Z,6
2023-03-26T21:25:38.938Z,4.8
2023-03-26T21:31:24.621Z,6.5
2023-03-26T21:37:09.467Z,5.4
2023-03-26T21:42:55.530Z,5.2
2023-03-26T21:48:40.712Z,7.3
2023-03-26T21:54:30.882Z,5.2
2023-03-26T22:00:18.491Z,4.7
2023-03-26T22:06:06.690Z,4.7
2023-03-26T22:11:52.380Z,6
2023-03-26T22:17:37.190Z,5
2023-03-26T22:23:22.161Z,7
2023-03-26T22:29:07.110Z,6.6
2023-03-26T22:34:51.645Z,5.7
2023-03-26T22:40:36.267Z,5.8
2023-03-26T22:46:21.118Z,5
2023-03-26T22:52:05.770Z,3.7
2023-03-26T22:57:50.286Z,4.1
2023-03-26T23:03:38.814Z,6
2023-03-26T23:09:23.507Z,5.9
2023-03-26T23:15:09.221Z,3.5
2023-03-26T23:20:58.837Z,7.6
2023-03-26T23:26:52.876Z,5.4
2023-03-26T23:32:37.498Z,4.8
2023-03-26T23:38:21.967Z,6
2023-03-26T23:44:06.798Z,5.1
2023-03-26T23:49:51.319Z,4.7
2023-03-26T23:55:36.397Z,2.8
